createdAt,value
2018-06-11T00:01:26.694Z,15.50
2018-06-11T00:03:54.173Z,15.50
2018-06-11T00:06:21.593Z,15.40
2018-06-11T00:08:49.125Z,15.40
2018-06-11T00:11:16.579Z,15.40
2018-06-11T00:13:44.045Z,15.40
2018-06-11T00:16:11.560Z,15.30
2018-06-11T00:18:39.017Z,15.30
2018-06-11T00:21:06.568Z,15.30
2018-06-11T00:23:34.059Z,15.30
2018-06-11T00:26:01.588Z,15.20
2018-06-11T00:28:28.990Z,15.20
2018-06-11T00:30:56.588Z,15.10
2018-06-11T00:33:24.011Z,15.10
2018-06-11T00:40:46.303Z,15.00
2018-06-11T00:43:13.842Z,15.00
2018-06-11T00:45:41.250Z,15.00
2018-06-11T00:48:08.765Z,15.00
2018-06-11T00:50:36.213Z,15.10
2018-06-11T00:55:42.549Z,15.20
2018-06-11T00:58:10.031Z,15.20
2018-06-11T01:00:37.452Z,15.10
2018-06-11T01:03:05.033Z,15.10
2018-06-11T01:05:32.424Z,15.10
2018-06-11T01:07:59.867Z,15.10
2018-06-11T01:10:27.411Z,15.10
2018-06-11T01:12:54.840Z,15.20
2018-06-11T01:15:22.325Z,15.20
2018-06-11T01:17:49.683Z,15.20
2018-06-11T01:20:17.523Z,15.30
2018-06-11T01:22:45.145Z,15.30
2018-06-11T01:25:12.631Z,15.30
2018-06-11T01:27:40.158Z,15.30
2018-06-11T01:30:07.620Z,15.30
2018-06-11T01:32:35.091Z,15.30
2018-06-11T01:35:02.592Z,15.30
2018-06-11T01:37:30.137Z,15.30
2018-06-11T01:39:57.728Z,15.40
2018-06-11T01:44:52.555Z,15.40
2018-06-11T01:47:19.925Z,15.40
2018-06-11T01:49:47.369Z,15.40
2018-06-11T01:52:14.912Z,15.40
2018-06-11T01:57:09.785Z,15.40
2018-06-11T01:59:37.171Z,15.40
2018-06-11T02:04:32.099Z,15.40
2018-06-11T02:06:59.656Z,15.40
2018-06-11T02:09:27.059Z,15.40
2018-06-11T02:11:54.562Z,15.30
2018-06-11T02:16:49.385Z,15.30
2018-06-11T02:19:16.750Z,15.30
2018-06-11T02:21:44.102Z,15.30
2018-06-11T02:24:11.492Z,15.30
2018-06-11T02:26:39.038Z,15.30
2018-06-11T02:29:06.480Z,15.40
2018-06-11T02:31:34.532Z,15.40
2018-06-11T02:34:02.463Z,15.40
2018-06-11T02:36:29.996Z,15.40
2018-06-11T02:38:57.582Z,15.40
2018-06-11T02:43:52.931Z,15.50
2018-06-11T02:46:20.625Z,15.40
2018-06-11T02:48:48.043Z,15.40
2018-06-11T02:51:15.537Z,15.40
2018-06-11T02:53:43.012Z,15.40
2018-06-11T02:56:10.500Z,15.40
2018-06-11T03:01:05.398Z,15.40
2018-06-11T03:03:32.839Z,15.40
2018-06-11T03:06:00.215Z,15.40
2018-06-11T03:10:55.224Z,15.40
2018-06-11T03:13:22.798Z,15.40
2018-06-11T03:20:45.153Z,15.50
2018-06-11T03:25:40.198Z,15.60
2018-06-11T03:28:07.656Z,15.60
2018-06-11T03:30:35.261Z,15.60
2018-06-11T03:33:02.711Z,15.60
2018-06-11T03:35:30.169Z,15.70
2018-06-11T03:37:57.658Z,15.70
2018-06-11T03:40:25.254Z,15.70
2018-06-11T03:42:52.699Z,15.70
2018-06-11T03:45:20.210Z,15.60
2018-06-11T03:47:47.700Z,15.70
2018-06-11T03:52:42.619Z,15.70
2018-06-11T03:57:37.568Z,15.80
2018-06-11T04:00:05.072Z,15.80
2018-06-11T04:02:32.610Z,15.90
2018-06-11T04:05:00.059Z,15.90
2018-06-11T04:07:27.615Z,16.00
2018-06-11T04:09:55.139Z,16.00
2018-06-11T04:12:22.695Z,16.00
2018-06-11T04:14:50.396Z,16.00
2018-06-11T04:17:17.919Z,16.10
2018-06-11T04:19:45.597Z,16.10
2018-06-11T04:22:13.160Z,16.20
2018-06-11T04:24:40.622Z,16.20
2018-06-11T04:27:08.041Z,16.20
2018-06-11T04:29:35.500Z,16.20
2018-06-11T04:32:02.969Z,16.20
2018-06-11T04:34:30.362Z,16.20
2018-06-11T04:36:57.942Z,16.20
2018-06-11T04:39:25.508Z,16.30
2018-06-11T04:44:20.445Z,16.30
2018-06-11T04:46:47.864Z,16.40
2018-06-11T04:49:15.265Z,16.40
2018-06-11T04:51:42.779Z,16.50
2018-06-11T04:54:10.198Z,16.50
2018-06-11T04:56:37.627Z,16.60
2018-06-11T04:59:05.138Z,16.70
2018-06-11T05:01:32.560Z,16.70
2018-06-11T05:04:00.020Z,16.80
2018-06-11T05:06:27.502Z,16.80
2018-06-11T05:08:55.006Z,16.90
2018-06-11T05:11:22.495Z,16.90
2018-06-11T05:13:49.918Z,17.00
2018-06-11T05:16:17.348Z,17.00
2018-06-11T05:21:12.290Z,17.00
2018-06-11T05:23:40.100Z,17.10
2018-06-11T05:26:07.602Z,17.10
2018-06-11T05:28:34.909Z,17.20
2018-06-11T05:31:02.351Z,17.10
2018-06-11T05:33:29.830Z,17.20
2018-06-11T05:35:57.310Z,17.20
2018-06-11T05:38:24.755Z,17.30
2018-06-11T05:40:52.298Z,17.30
2018-06-11T05:43:19.799Z,17.30
2018-06-11T05:45:47.129Z,17.30
2018-06-11T05:55:36.959Z,17.50
2018-06-11T06:00:31.926Z,17.60
2018-06-11T06:02:59.321Z,17.70
2018-06-11T06:07:54.123Z,17.70
2018-06-11T06:10:21.594Z,17.70
2018-06-11T06:15:16.535Z,17.80
2018-06-11T06:17:44.022Z,17.80
2018-06-11T06:20:11.409Z,17.80
2018-06-11T06:25:06.462Z,17.80
2018-06-11T06:27:33.972Z,17.80
2018-06-11T06:30:01.473Z,17.80
2018-06-11T06:32:28.989Z,17.80
2018-06-11T06:34:56.513Z,17.80
2018-06-11T06:39:51.427Z,17.80
2018-06-11T06:42:18.979Z,17.80
2018-06-11T06:44:46.444Z,17.80
2018-06-11T06:47:13.899Z,17.80
2018-06-11T06:49:41.589Z,17.90
2018-06-11T06:52:09.170Z,17.90
2018-06-11T06:54:36.549Z,17.90
2018-06-11T06:57:04.044Z,17.90
2018-06-11T06:59:31.489Z,17.90
2018-06-11T07:01:59.121Z,17.90
2018-06-11T07:04:26.482Z,17.90
2018-06-11T07:06:53.997Z,17.90
2018-06-11T07:14:16.724Z,17.90
2018-06-11T07:16:44.132Z,17.90
2018-06-11T07:21:38.998Z,17.80
2018-06-11T07:24:06.546Z,17.70
2018-06-11T07:26:34.556Z,17.70
2018-06-11T07:29:02.073Z,17.70
2018-06-11T07:31:29.539Z,17.70
2018-06-11T07:33:57.069Z,17.60
2018-06-11T07:36:24.494Z,17.60
2018-06-11T07:38:52.019Z,17.50
2018-06-11T07:41:19.493Z,17.60
2018-06-11T07:46:14.559Z,17.50
2018-06-11T07:48:42.141Z,17.40
2018-06-11T07:51:09.809Z,17.40
2018-06-11T07:53:37.693Z,17.40
2018-06-11T07:56:05.245Z,17.50
2018-06-11T07:58:32.780Z,17.50
2018-06-11T08:01:00.343Z,17.50
2018-06-11T08:03:27.909Z,17.50
2018-06-11T08:05:55.252Z,17.50
2018-06-11T08:08:22.736Z,17.50
2018-06-11T08:10:50.330Z,17.50
2018-06-11T08:15:45.340Z,17.50
2018-06-11T08:20:40.337Z,17.60
2018-06-11T08:25:35.454Z,17.70
2018-06-11T08:28:02.961Z,17.70
2018-06-11T08:30:30.417Z,17.80
2018-06-11T08:32:57.993Z,17.70
2018-06-11T08:35:25.488Z,17.70
2018-06-11T08:37:52.962Z,17.50
2018-06-11T08:42:47.923Z,17.50
2018-06-11T08:45:15.449Z,17.50
2018-06-11T08:47:42.853Z,17.40
2018-06-11T08:50:11.116Z,17.50
2018-06-11T08:52:38.810Z,17.40
2018-06-11T08:55:06.304Z,17.40
2018-06-11T08:57:33.836Z,17.40
2018-06-11T09:02:28.914Z,17.40
2018-06-11T09:04:56.310Z,17.40
2018-06-11T09:07:23.812Z,17.40
2018-06-11T09:09:51.368Z,17.40
2018-06-11T09:12:18.910Z,17.30
2018-06-11T09:14:48.114Z,17.30
2018-06-11T09:17:15.651Z,17.20
2018-06-11T09:19:43.125Z,17.30
2018-06-11T09:22:10.644Z,17.30
2018-06-11T09:27:05.608Z,17.20
2018-06-11T09:29:33.140Z,17.10
2018-06-11T09:32:00.686Z,17.10
2018-06-11T09:36:56.019Z,17.30
2018-06-11T09:39:23.593Z,17.30
2018-06-11T09:41:51.045Z,17.40
2018-06-11T09:44:18.444Z,17.50
2018-06-11T09:46:46.023Z,17.50
2018-06-11T09:49:13.575Z,17.50
2018-06-11T09:51:41.140Z,17.50
2018-06-11T09:56:36.183Z,17.50
2018-06-11T09:59:03.664Z,17.50
2018-06-11T10:01:31.105Z,17.60
2018-06-11T10:03:58.633Z,17.70
2018-06-11T10:11:21.068Z,17.70
2018-06-11T10:13:48.559Z,17.60
2018-06-11T10:18:43.385Z,17.70
2018-06-11T10:21:10.927Z,17.70
2018-06-11T10:26:06.015Z,17.90
2018-06-11T10:28:33.619Z,17.90
2018-06-11T10:31:01.071Z,17.90
2018-06-11T10:33:28.568Z,17.90
2018-06-11T10:35:56.113Z,17.90
2018-06-11T10:38:23.759Z,17.90
2018-06-11T10:40:51.307Z,17.90
2018-06-11T10:45:46.284Z,18.00
2018-06-11T10:48:13.765Z,18.10
2018-06-11T10:53:08.631Z,18.00
2018-06-11T10:55:36.022Z,17.90
2018-06-11T10:58:03.586Z,17.90
2018-06-11T11:00:31.063Z,17.80
2018-06-11T11:02:58.548Z,17.80
2018-06-11T11:05:26.107Z,17.70
2018-06-11T11:07:53.540Z,17.70
2018-06-11T11:10:21.062Z,17.70
2018-06-11T11:12:48.548Z,17.70
2018-06-11T11:15:15.977Z,17.70
2018-06-11T11:17:43.389Z,17.70
2018-06-11T11:20:10.972Z,17.60
2018-06-11T11:22:38.523Z,17.60
2018-06-11T11:25:06.091Z,17.50
2018-06-11T11:27:33.511Z,17.50
2018-06-11T11:30:00.946Z,17.50
2018-06-11T11:32:28.493Z,17.50
2018-06-11T11:37:23.335Z,17.70
2018-06-11T11:39:50.765Z,17.80
2018-06-11T11:42:18.283Z,17.90
2018-06-11T11:44:45.715Z,17.80
2018-06-11T11:47:13.132Z,17.90
2018-06-11T11:52:08.043Z,17.90
2018-06-11T11:54:35.508Z,17.90
2018-06-11T11:57:03.045Z,18.00
2018-06-11T11:59:30.571Z,18.00
2018-06-11T12:01:58.014Z,18.00
2018-06-11T12:04:25.447Z,18.10
2018-06-11T12:06:52.878Z,18.00
2018-06-11T12:11:47.924Z,18.10
2018-06-11T12:14:15.446Z,18.00
2018-06-11T12:19:10.536Z,18.10
2018-06-11T12:24:05.348Z,18.10
2018-06-11T12:26:32.911Z,18.10
2018-06-11T12:29:00.460Z,18.20
2018-06-11T12:31:27.877Z,18.40
2018-06-11T12:33:55.460Z,18.60
2018-06-11T12:36:23.027Z,18.70
2018-06-11T12:38:50.634Z,18.80
2018-06-11T12:41:18.147Z,18.90
2018-06-11T12:43:45.662Z,18.90
2018-06-11T12:46:13.171Z,19.00
2018-06-11T12:48:40.670Z,19.30
2018-06-11T12:53:35.782Z,19.60
2018-06-11T12:56:03.363Z,19.70
2018-06-11T12:58:30.754Z,19.70
2018-06-11T13:00:58.226Z,19.70
2018-06-11T13:03:26.281Z,19.70
2018-06-11T13:05:53.792Z,19.70
2018-06-11T13:08:21.316Z,19.60
2018-06-11T13:10:48.820Z,19.50
2018-06-11T13:13:16.251Z,19.40
2018-06-11T13:18:11.971Z,19.30
2018-06-11T13:20:39.406Z,19.30
2018-06-11T13:23:06.787Z,19.20
2018-06-11T13:28:01.780Z,19.20
2018-06-11T13:30:29.281Z,19.30
2018-06-11T13:32:56.968Z,19.40
2018-06-11T13:35:24.511Z,19.40
2018-06-11T13:37:51.966Z,19.50
2018-06-11T13:40:19.408Z,19.50
2018-06-11T13:42:46.890Z,19.50
2018-06-11T13:45:14.425Z,19.50
2018-06-11T13:47:41.873Z,19.30
2018-06-11T13:50:09.367Z,19.40
2018-06-11T13:52:36.882Z,19.40
2018-06-11T13:57:31.966Z,19.60
2018-06-11T13:59:59.372Z,19.60
2018-06-11T14:02:26.824Z,19.60
2018-06-11T14:04:54.219Z,19.60
2018-06-11T14:07:21.955Z,19.70
2018-06-11T14:09:49.390Z,19.70
2018-06-11T14:12:16.863Z,19.60
2018-06-11T14:14:44.319Z,19.60
2018-06-11T14:17:11.678Z,19.50
2018-06-11T14:19:39.197Z,19.50
2018-06-11T14:24:34.221Z,19.50
2018-06-11T14:29:29.247Z,19.50
2018-06-11T14:31:56.724Z,19.60
2018-06-11T14:34:24.269Z,19.50
2018-06-11T14:36:51.721Z,19.60
2018-06-11T14:39:19.534Z,19.50
2018-06-11T14:41:47.195Z,19.50
2018-06-11T14:44:14.731Z,19.60
2018-06-11T14:46:42.230Z,19.60
2018-06-11T14:49:10.196Z,19.70
2018-06-11T14:51:37.779Z,19.70
2018-06-11T14:54:05.179Z,19.70
2018-06-11T14:56:32.694Z,19.80
2018-06-11T15:01:27.867Z,19.80
2018-06-11T15:03:55.654Z,19.70
2018-06-11T15:06:23.091Z,19.80
2018-06-11T15:08:50.572Z,19.70
2018-06-11T15:11:18.048Z,19.60
2018-06-11T15:16:13.032Z,19.70
2018-06-11T15:18:40.517Z,19.70
2018-06-11T15:21:07.936Z,19.80
2018-06-11T15:23:35.487Z,19.70
2018-06-11T15:26:03.054Z,19.80
2018-06-11T15:28:30.575Z,19.80
2018-06-11T15:30:58.150Z,19.80
2018-06-11T15:33:25.678Z,19.80
2018-06-11T15:35:53.164Z,19.80
2018-06-11T15:38:20.736Z,19.90
2018-06-11T15:40:48.507Z,19.90
2018-06-11T15:43:16.037Z,20.00
2018-06-11T15:45:43.571Z,20.00
2018-06-11T15:48:11.040Z,20.10
2018-06-11T15:50:38.490Z,20.10
2018-06-11T15:53:05.913Z,20.00
2018-06-11T15:55:33.291Z,20.00
2018-06-11T15:58:00.758Z,20.00
2018-06-11T16:00:28.278Z,19.90
2018-06-11T16:05:23.405Z,19.90
2018-06-11T16:07:50.969Z,20.00
2018-06-11T16:12:45.974Z,19.80
2018-06-11T16:17:40.941Z,19.80
2018-06-11T16:20:09.040Z,19.80
2018-06-11T16:22:36.497Z,19.80
2018-06-11T16:25:04.298Z,19.80
2018-06-11T16:29:59.335Z,19.80
2018-06-11T16:32:26.959Z,19.80
2018-06-11T16:37:21.852Z,19.80
2018-06-11T16:39:49.311Z,19.70
2018-06-11T16:42:16.999Z,19.70
2018-06-11T16:47:11.909Z,19.70
2018-06-11T16:52:06.790Z,19.70
2018-06-11T16:54:34.244Z,19.70
2018-06-11T16:57:01.652Z,19.70
2018-06-11T16:59:29.258Z,19.70
2018-06-11T17:01:56.710Z,19.70
2018-06-11T17:04:24.183Z,19.70
2018-06-11T17:06:51.605Z,19.70
2018-06-11T17:09:19.132Z,19.80
2018-06-11T17:11:46.674Z,19.80
2018-06-11T17:16:42.459Z,19.90
2018-06-11T17:19:09.898Z,19.80
2018-06-11T17:21:37.912Z,19.80
2018-06-11T17:24:05.504Z,19.80
2018-06-11T17:26:32.978Z,19.70
2018-06-11T17:29:00.547Z,19.70
2018-06-11T17:31:28.148Z,19.60
2018-06-11T17:33:55.859Z,19.50
2018-06-11T17:36:23.309Z,19.50
2018-06-11T17:38:50.837Z,19.50
2018-06-11T17:41:18.352Z,19.50
2018-06-11T17:43:45.911Z,19.50
2018-06-11T17:46:13.458Z,19.40
2018-06-11T17:48:40.935Z,19.50
2018-06-11T17:51:08.496Z,19.40
2018-06-11T17:53:36.083Z,19.30
2018-06-11T17:58:31.662Z,19.30
2018-06-11T18:00:59.107Z,19.30
2018-06-11T18:03:26.679Z,19.20
2018-06-11T18:05:54.109Z,19.10
2018-06-11T18:08:21.628Z,19.00
2018-06-11T18:10:49.187Z,18.90
2018-06-11T18:13:16.701Z,18.80
2018-06-11T18:15:44.220Z,18.70
2018-06-11T18:18:11.627Z,18.70
2018-06-11T18:20:39.159Z,18.60
2018-06-11T18:23:06.642Z,18.50
2018-06-11T18:25:34.322Z,18.50
2018-06-11T18:28:02.084Z,18.50
2018-06-11T18:30:29.613Z,18.40
2018-06-11T18:32:57.149Z,18.30
2018-06-11T18:35:24.800Z,18.30
2018-06-11T18:37:52.525Z,18.30
2018-06-11T18:40:20.187Z,18.20
2018-06-11T18:42:47.820Z,18.20
2018-06-11T18:45:15.312Z,18.20
2018-06-11T18:47:42.875Z,18.10
2018-06-11T18:50:10.628Z,18.10
2018-06-11T18:52:38.370Z,18.00
2018-06-11T18:55:05.883Z,17.80
2018-06-11T18:57:33.387Z,17.80
2018-06-11T19:00:01.131Z,17.70
2018-06-11T19:02:29.705Z,17.70
2018-06-11T19:04:57.111Z,17.70
2018-06-11T19:07:24.769Z,17.60
2018-06-11T19:09:52.404Z,17.60
2018-06-11T19:12:20.095Z,17.50
2018-06-11T19:17:15.107Z,17.50
2018-06-11T19:19:43.426Z,17.40
2018-06-11T19:22:10.958Z,17.40
2018-06-11T19:24:38.681Z,17.40
2018-06-11T19:27:06.331Z,17.30
2018-06-11T19:29:33.998Z,17.30
2018-06-11T19:32:01.726Z,17.30
2018-06-11T19:34:29.305Z,17.30
2018-06-11T19:36:56.936Z,17.30
2018-06-11T19:41:52.296Z,17.30
2018-06-11T19:44:20.077Z,17.30
2018-06-11T19:46:48.825Z,17.40
2018-06-11T19:49:16.470Z,17.30
2018-06-11T19:51:44.221Z,17.30
2018-06-11T19:54:13.078Z,17.30
2018-06-11T19:56:40.731Z,17.20
2018-06-11T19:59:08.519Z,17.20
2018-06-11T20:01:36.233Z,17.20
2018-06-11T20:04:04.331Z,17.10
2018-06-11T20:06:32.347Z,17.10
2018-06-11T20:11:28.025Z,17.10
2018-06-11T20:13:55.730Z,17.10
2018-06-11T20:16:23.494Z,17.10
2018-06-11T20:18:51.148Z,17.10
2018-06-11T20:21:18.936Z,17.10
2018-06-11T20:23:46.590Z,17.10
2018-06-11T20:28:43.078Z,17.10
2018-06-11T20:31:11.085Z,17.10
2018-06-11T20:33:38.851Z,17.10
2018-06-11T20:36:06.702Z,17.00
2018-06-11T20:38:34.385Z,17.00
2018-06-11T20:41:02.079Z,17.00
2018-06-11T20:43:29.712Z,17.10
2018-06-11T20:45:57.429Z,17.10
2018-06-11T20:48:25.065Z,17.10
2018-06-11T20:50:52.756Z,17.10
2018-06-11T20:53:20.430Z,17.00
2018-06-11T20:55:48.068Z,17.00
2018-06-11T20:58:15.730Z,17.00
2018-06-11T21:00:43.435Z,16.90
2018-06-11T21:03:11.222Z,16.90
2018-06-11T21:05:38.866Z,16.80
2018-06-11T21:08:06.531Z,16.70
2018-06-11T21:13:01.850Z,16.40
2018-06-11T21:17:57.130Z,16.30
2018-06-11T21:20:24.823Z,16.40
2018-06-11T21:22:52.493Z,16.30
2018-06-11T21:25:20.163Z,16.30
2018-06-11T21:30:16.748Z,16.30
2018-06-11T21:32:44.645Z,16.20
2018-06-11T21:35:12.351Z,16.20
2018-06-11T21:45:03.114Z,16.10
2018-06-11T21:47:30.859Z,16.00
2018-06-11T21:54:53.640Z,16.00
2018-06-11T21:57:21.247Z,16.00
2018-06-11T21:59:48.991Z,15.90
2018-06-11T22:02:16.732Z,15.90
2018-06-11T22:04:44.419Z,16.00
2018-06-11T22:07:12.176Z,16.00
2018-06-11T22:09:39.804Z,15.90
2018-06-11T22:14:35.121Z,15.70
2018-06-11T22:19:30.505Z,15.60
2018-06-11T22:21:58.386Z,15.60
2018-06-11T22:24:26.458Z,15.50
2018-06-11T22:26:54.286Z,15.50
2018-06-11T22:29:22.092Z,15.40
2018-06-11T22:31:49.738Z,15.40
2018-06-11T22:34:17.486Z,15.40
2018-06-11T22:36:45.203Z,15.30
2018-06-11T22:41:40.599Z,15.30
2018-06-11T22:44:08.233Z,15.30
2018-06-11T22:46:36.123Z,15.20
2018-06-11T22:49:03.820Z,15.20
2018-06-11T22:56:26.980Z,15.20
2018-06-11T22:58:54.701Z,15.10
2018-06-11T23:01:22.493Z,15.10
2018-06-11T23:03:50.425Z,15.10
2018-06-11T23:06:18.152Z,15.00
2018-06-11T23:11:13.378Z,15.00
2018-06-11T23:13:41.159Z,15.00
2018-06-11T23:16:08.961Z,15.00
2018-06-11T23:18:36.761Z,15.10
2018-06-11T23:21:04.817Z,15.10
2018-06-11T23:23:32.433Z,15.10
2018-06-11T23:26:00.297Z,15.20
2018-06-11T23:28:28.018Z,15.10
2018-06-11T23:30:56.502Z,15.10
2018-06-11T23:33:24.168Z,15.10
2018-06-11T23:38:19.585Z,15.10
2018-06-11T23:40:47.268Z,15.00
2018-06-11T23:43:14.913Z,15.00
2018-06-11T23:48:10.233Z,15.00
2018-06-11T23:50:38.053Z,15.10
2018-06-11T23:53:05.870Z,15.10
2018-06-11T23:58:01.224Z,15.10
